Time,TemperatureF,DewpointF,PressureIn,WindDirection,WindDirectionDegrees,WindSpeedMPH,WindSpeedGustMPH,Humidity,HourlyPrecipIn,Conditions,Clouds,dailyrainin,SolarRadiationWatts/m^2,SoftwareType,DateUTC
2013-07-30 01:33:00,57.0,54.0,30.18,WSW,257,0.0,-999.0,91,-99.99,,,-99.99,0.000000,,2013-07-30 05:33:00,
2013-07-30 01:45:00,57.0,54.0,30.18,WSW,257,0.0,-999.0,91,-99.99,,,-99.99,0.000000,,2013-07-30 05:45:00,
2013-07-30 01:53:00,57.0,54.0,30.18,WSW,257,0.0,-999.0,91,-99.99,,,-99.99,0.000000,,2013-07-30 05:53:00,
2013-07-30 02:03:00,57.0,54.0,30.18,WSW,257,0.0,-999.0,91,-99.99,,,-99.99,0.000000,,2013-07-30 06:03:00,
2013-07-30 02:13:00,56.0,54.0,30.18,WSW,257,0.0,-999.0,92,-99.99,,,-99.99,0.000000,,2013-07-30 06:13:00,
2013-07-30 02:23:00,56.0,54.0,30.18,WSW,257,0.0,-999.0,93,-99.99,,,-99.99,0.000000,,2013-07-30 06:23:00,
2013-07-30 02:33:00,56.0,54.0,30.18,WSW,257,0.0,-999.0,94,-99.99,,,-99.99,0.000000,,2013-07-30 06:33:00,
2013-07-30 02:43:00,56.0,54.0,30.18,WSW,257,0.0,-999.0,94,-99.99,,,-99.99,0.000000,,2013-07-30 06:43:00,
2013-07-30 02:53:00,56.0,54.0,30.18,WSW,257,0.0,-999.0,93,-99.99,,,-99.99,0.000000,,2013-07-30 06:53:00,
2013-07-30 03:03:00,55.0,53.0,30.17,WSW,257,0.0,-999.0,93,-99.99,,,-99.99,0.000000,,2013-07-30 07:03:00,
2013-07-30 03:13:00,55.0,53.0,30.17,WSW,257,0.0,-999.0,93,-99.99,,,-99.99,0.000000,,2013-07-30 07:13:00,
2013-07-30 03:23:00,55.0,53.0,30.18,WSW,257,0.0,-999.0,93,-99.99,,,-99.99,0.000000,,2013-07-30 07:23:00,
2013-07-30 03:33:00,55.0,53.0,30.19,WSW,257,0.0,-999.0,93,-99.99,,,-99.99,0.000000,,2013-07-30 07:33:00,
2013-07-30 03:43:00,55.0,53.0,30.19,WSW,257,0.0,-999.0,93,-99.99,,,-99.99,0.000000,,2013-07-30 07:43:00,
2013-07-30 03:53:00,55.0,53.0,30.19,WSW,257,0.0,-999.0,94,-99.99,,,-99.99,0.000000,,2013-07-30 07:53:00,
2013-07-30 04:03:00,54.0,52.0,30.19,WSW,257,0.0,-999.0,94,-99.99,,,-99.99,0.000000,,2013-07-30 08:03:00,
2013-07-30 04:13:00,54.0,52.0,30.19,WSW,257,0.0,-999.0,94,-99.99,,,-99.99,0.000000,,2013-07-30 08:13:00,
2013-07-30 04:23:00,54.0,52.0,30.18,WSW,257,0.0,-999.0,94,-99.99,,,-99.99,0.000000,,2013-07-30 08:23:00,
2013-07-30 04:33:00,54.0,52.0,30.18,WSW,257,0.0,-999.0,94,-99.99,,,-99.99,0.000000,,2013-07-30 08:33:00,
2013-07-30 04:43:00,54.0,52.0,30.18,WSW,257,0.0,-999.0,94,-99.99,,,-99.99,0.000000,,2013-07-30 08:43:00,
2013-07-30 04:53:00,54.0,52.0,30.18,WSW,257,0.0,-999.0,94,-99.99,,,-99.99,0.000000,,2013-07-30 08:53:00,
2013-07-30 05:03:00,53.0,51.0,30.18,WSW,257,0.0,-999.0,94,-99.99,,,-99.99,0.000000,,2013-07-30 09:03:00,
2013-07-30 05:13:00,53.0,51.0,30.18,WSW,257,0.0,-999.0,94,-99.99,,,-99.99,0.000000,,2013-07-30 09:13:00,
2013-07-30 05:33:00,53.0,51.0,30.18,WSW,257,0.0,-999.0,94,-99.99,,,-99.99,0.000000,,2013-07-30 09:33:00,
2013-07-30 05:43:00,53.0,51.0,30.18,WSW,257,0.0,-999.0,94,-99.99,,,-99.99,0.000000,,2013-07-30 09:43:00,
2013-07-30 05:53:00,53.0,51.0,30.18,WSW,257,0.0,-999.0,94,-99.99,,,-99.99,0.000000,,2013-07-30 09:53:00,
2013-07-30 06:03:00,53.0,51.0,30.18,WSW,257,0.0,-999.0,94,-99.99,,,-99.99,0.000000,,2013-07-30 10:03:00,
2013-07-30 06:12:00,53.0,51.0,30.18,WSW,257,0.0,-999.0,94,-99.99,,,-99.99,0.000000,,2013-07-30 10:12:00,
2013-07-30 06:32:00,52.0,50.0,30.19,WSW,257,0.0,-999.0,94,-99.99,,,-99.99,0.000000,,2013-07-30 10:32:00,
2013-07-30 06:44:00,52.0,50.0,30.19,WSW,257,0.0,-999.0,94,-99.99,,,-99.99,0.000000,,2013-07-30 10:44:00,
2013-07-30 07:02:00,52.0,50.0,30.19,WSW,257,0.0,-999.0,94,-99.99,,,-99.99,0.000000,,2013-07-30 11:02:00,
2013-07-30 07:11:00,52.0,50.0,30.19,West,272,0.0,-999.0,94,-99.99,,,-99.99,9.000000,,2013-07-30 11:11:00,
2013-07-30 07:33:00,52.0,50.0,30.19,WNW,295,0.0,-999.0,94,-99.99,,,-99.99,16.000000,,2013-07-30 11:33:00,
2013-07-30 07:43:00,52.0,51.0,30.19,WNW,296,0.0,-999.0,95,-99.99,,,-99.99,18.000000,,2013-07-30 11:43:00,
2013-07-30 07:53:00,52.0,51.0,30.20,WNW,295,0.0,-999.0,95,-99.99,,,-99.99,33.000000,,2013-07-30 11:53:00,
2013-07-30 08:12:00,53.0,52.0,30.20,WNW,296,0.0,-999.0,96,-99.99,,,-99.99,139.000000,,2013-07-30 12:12:00,
2013-07-30 08:22:00,55.0,54.0,30.21,WNW,290,0.0,-999.0,97,-99.99,,,-99.99,183.000000,,2013-07-30 12:22:00,
2013-07-30 08:33:00,55.0,54.0,30.21,WNW,290,0.0,-999.0,97,-99.99,,,-99.99,183.000000,,2013-07-30 12:33:00,
2013-07-30 08:42:00,55.0,54.0,30.21,WNW,290,0.0,-999.0,97,-99.99,,,-99.99,183.000000,,2013-07-30 12:42:00,
2013-07-30 08:53:00,55.0,54.0,30.21,WNW,290,0.0,-999.0,97,-99.99,,,-99.99,183.000000,,2013-07-30 12:53:00,
2013-07-30 09:12:00,61.0,60.0,30.21,SSW,195,2.0,-999.0,97,-99.99,,,-99.99,315.000000,,2013-07-30 13:12:00,
2013-07-30 09:22:00,61.0,60.0,30.21,SSW,195,2.0,-999.0,97,-99.99,,,-99.99,315.000000,,2013-07-30 13:22:00,
2013-07-30 09:33:00,61.0,60.0,30.21,SSW,195,2.0,-999.0,97,-99.99,,,-99.99,315.000000,,2013-07-30 13:33:00,
2013-07-30 09:43:00,64.0,62.0,30.21,SSW,196,0.0,-999.0,92,-99.99,,,-99.99,418.000000,,2013-07-30 13:43:00,
2013-07-30 10:03:00,66.0,62.0,30.21,SSW,196,0.0,-999.0,88,-99.99,,,-99.99,466.000000,,2013-07-30 14:03:00,
2013-07-30 10:12:00,66.0,62.0,30.21,SSW,196,0.0,-999.0,88,-99.99,,,-99.99,466.000000,,2013-07-30 14:12:00,
2013-07-30 10:22:00,66.0,62.0,30.21,SSW,196,0.0,-999.0,88,-99.99,,,-99.99,466.000000,,2013-07-30 14:22:00,
2013-07-30 11:02:00,73.0,63.0,30.19,South,182,0.0,-999.0,70,-99.99,,,-99.99,684.000000,,2013-07-30 15:02:00,
2013-07-30 11:23:00,74.0,62.0,30.19,South,188,2.0,-999.0,66,-99.99,,,-99.99,726.000000,,2013-07-30 15:23:00,
2013-07-30 11:33:00,74.0,62.0,30.19,South,188,2.0,-999.0,66,-99.99,,,-99.99,726.000000,,2013-07-30 15:33:00,
2013-07-30 11:43:00,74.0,62.0,30.19,South,180,2.0,-999.0,66,-99.99,,,-99.99,761.000000,,2013-07-30 15:43:00,
2013-07-30 11:53:00,74.0,62.0,30.19,South,180,2.0,-999.0,66,-99.99,,,-99.99,761.000000,,2013-07-30 15:53:00,
2013-07-30 12:02:00,74.0,62.0,30.19,South,180,2.0,-999.0,66,-99.99,,,-99.99,761.000000,,2013-07-30 16:02:00,
2013-07-30 12:12:00,74.0,62.0,30.19,South,180,2.0,-999.0,66,-99.99,,,-99.99,761.000000,,2013-07-30 16:12:00,
2013-07-30 12:44:00,76.0,62.0,30.19,SSW,213,3.0,-999.0,63,-99.99,,,-99.99,916.000000,,2013-07-30 16:44:00,
2013-07-30 13:02:00,76.0,62.0,30.19,SSW,213,3.0,-999.0,63,-99.99,,,-99.99,916.000000,,2013-07-30 17:02:00,
2013-07-30 13:43:00,77.0,63.0,30.18,WSW,246,1.0,-999.0,61,-99.99,,,-99.99,886.000000,,2013-07-30 17:43:00,
2013-07-30 13:54:00,77.0,63.0,30.18,WSW,246,1.0,-999.0,61,-99.99,,,-99.99,886.000000,,2013-07-30 17:54:00,
2013-07-30 14:03:00,77.0,63.0,30.18,WSW,246,1.0,-999.0,61,-99.99,,,-99.99,886.000000,,2013-07-30 18:03:00,
2013-07-30 14:12:00,77.0,63.0,30.18,WSW,246,1.0,-999.0,61,-99.99,,,-99.99,886.000000,,2013-07-30 18:12:00,
2013-07-30 15:44:00,75.0,62.0,30.16,SW,229,3.0,-999.0,65,-99.99,,,-99.99,313.000000,,2013-07-30 19:44:00,
2013-07-30 15:52:00,75.0,62.0,30.16,SW,229,3.0,-999.0,65,-99.99,,,-99.99,313.000000,,2013-07-30 19:52:00,
2013-07-30 16:02:00,75.0,62.0,30.16,SW,229,3.0,-999.0,65,-99.99,,,-99.99,313.000000,,2013-07-30 20:02:00,
2013-07-30 16:12:00,75.0,62.0,30.16,SW,229,3.0,-999.0,65,-99.99,,,-99.99,313.000000,,2013-07-30 20:12:00,
2013-07-30 16:33:00,74.0,63.0,30.14,SW,229,1.0,-999.0,68,-99.99,,,-99.99,109.000000,,2013-07-30 20:33:00,
2013-07-30 16:43:00,74.0,64.0,30.14,SW,229,1.0,-999.0,70,-99.99,,,-99.99,104.000000,,2013-07-30 20:43:00,
2013-07-30 16:52:00,74.0,64.0,30.14,SW,229,1.0,-999.0,70,-99.99,,,-99.99,104.000000,,2013-07-30 20:52:00,
2013-07-30 17:02:00,74.0,64.0,30.14,SW,229,1.0,-999.0,70,-99.99,,,-99.99,104.000000,,2013-07-30 21:02:00,
2013-07-30 17:12:00,74.0,64.0,30.14,SW,229,1.0,-999.0,70,-99.99,,,-99.99,104.000000,,2013-07-30 21:12:00,
2013-07-30 17:42:00,74.0,65.0,30.13,SW,229,0.0,-999.0,73,-99.99,,,-99.99,121.000000,,2013-07-30 21:42:00,
2013-07-30 17:53:00,74.0,65.0,30.13,SW,229,3.0,-999.0,73,-99.99,,,-99.99,114.000000,,2013-07-30 21:53:00,
2013-07-30 18:02:00,74.0,65.0,30.13,SW,229,3.0,-999.0,73,-99.99,,,-99.99,114.000000,,2013-07-30 22:02:00,
2013-07-30 18:12:00,74.0,65.0,30.13,SW,229,2.0,-999.0,74,-99.99,,,-99.99,120.000000,,2013-07-30 22:12:00,
2013-07-30 18:22:00,74.0,65.0,30.13,SW,229,2.0,-999.0,74,-99.99,,,-99.99,120.000000,,2013-07-30 22:22:00,
2013-07-30 18:32:00,74.0,65.0,30.13,SW,229,2.0,-999.0,74,-99.99,,,-99.99,120.000000,,2013-07-30 22:32:00,
2013-07-30 18:43:00,74.0,65.0,30.13,SW,229,2.0,-999.0,74,-99.99,,,-99.99,120.000000,,2013-07-30 22:43:00,
2013-07-30 18:53:00,74.0,65.0,30.11,SW,229,0.0,-999.0,74,-99.99,,,-99.99,100.000000,,2013-07-30 22:53:00,
2013-07-30 19:02:00,74.0,67.0,30.11,SW,229,0.0,-999.0,79,-99.99,,,-99.99,97.000000,,2013-07-30 23:02:00,
2013-07-30 19:13:00,74.0,67.0,30.11,SW,229,0.0,-999.0,79,-99.99,,,-99.99,97.000000,,2013-07-30 23:13:00,
2013-07-30 19:22:00,73.0,66.0,30.11,SW,229,0.0,-999.0,79,-99.99,,,-99.99,69.000000,,2013-07-30 23:22:00,
2013-07-30 19:32:00,73.0,66.0,30.11,SW,229,0.0,-999.0,80,-99.99,,,-99.99,70.000000,,2013-07-30 23:32:00,
2013-07-30 19:42:00,73.0,66.0,30.11,SW,229,0.0,-999.0,80,-99.99,,,-99.99,70.000000,,2013-07-30 23:42:00,
2013-07-30 19:53:00,73.0,66.0,30.11,SW,229,0.0,-999.0,80,-99.99,,,-99.99,70.000000,,2013-07-30 23:53:00,
2013-07-30 20:02:00,73.0,66.0,30.11,SW,229,0.0,-999.0,80,-99.99,,,-99.99,70.000000,,2013-07-31 00:02:00,
2013-07-30 20:12:00,73.0,66.0,30.11,SW,229,0.0,-999.0,80,-99.99,,,-99.99,70.000000,,2013-07-31 00:12:00,
2013-07-30 21:22:00,70.0,66.0,30.11,SW,229,0.0,-999.0,86,-99.99,,,-99.99,0.000000,,2013-07-31 01:22:00,
2013-07-30 21:43:00,70.0,66.0,30.11,SW,229,0.0,-999.0,86,-99.99,,,-99.99,0.000000,,2013-07-31 01:43:00,
2013-07-30 21:52:00,70.0,66.0,30.11,SW,229,0.0,-999.0,86,-99.99,,,-99.99,0.000000,,2013-07-31 01:52:00,
2013-07-30 22:02:00,70.0,66.0,30.11,SW,229,0.0,-999.0,86,-99.99,,,-99.99,0.000000,,2013-07-31 02:02:00,
2013-07-30 22:12:00,70.0,66.0,30.11,SW,229,0.0,-999.0,86,-99.99,,,-99.99,0.000000,,2013-07-31 02:12:00,
2013-07-30 23:42:00,68.0,65.0,30.11,SW,229,0.0,-999.0,89,-99.99,,,-99.99,0.000000,,2013-07-31 03:42:00,